Time,TemperatureF,DewpointF,PressureIn,WindDirection,WindDirectionDegrees,WindSpeedMPH,WindSpeedGustMPH,Humidity,HourlyPrecipIn,Conditions,Clouds,dailyrainin,SoftwareType,DateUTC
2013-03-24 00:03:00,51.3,48.4,29.74,WSW,248,6.3,6.3,90,0.00,,,0.00,WUHU216HW,2013-03-24 05:03:00,
2013-03-24 00:08:00,51.1,48.0,29.76,West,270,9.4,10.5,89,0.00,,,0.00,WUHU216HW,2013-03-24 05:08:00,
2013-03-24 00:13:00,51.1,48.0,29.77,WSW,248,6.0,10.5,89,0.00,,,0.00,WUHU216HW,2013-03-24 05:13:00,
2013-03-24 00:18:00,50.8,47.6,29.77,WNW,293,6.0,6.7,89,0.00,,,0.00,WUHU216HW,2013-03-24 05:18:00,
2013-03-24 00:23:00,50.6,47.4,29.72,North,0,3.4,8.5,89,0.01,,,0.00,WUHU216HW,2013-03-24 05:23:00,
2013-03-24 00:28:00,50.2,47.1,29.70,NNW,338,5.4,9.2,89,0.01,,,0.00,WUHU216HW,2013-03-24 05:28:00,
2013-03-24 00:33:00,50.0,47.2,29.70,WNW,293,5.4,10.5,90,0.01,,,0.00,WUHU216HW,2013-03-24 05:33:00,
2013-03-24 00:38:00,49.9,47.0,29.71,West,270,1.8,10.5,90,0.01,,,0.00,WUHU216HW,2013-03-24 05:38:00,
2013-03-24 00:43:00,49.9,47.0,29.73,West,270,1.3,4.0,90,0.01,,,0.00,WUHU216HW,2013-03-24 05:43:00,
2013-03-24 00:48:00,49.7,46.8,29.72,NW,315,4.0,4.0,90,0.01,,,0.00,WUHU216HW,2013-03-24 05:48:00,
2013-03-24 00:53:00,49.9,47.0,29.74,SSW,203,2.7,4.0,90,0.01,,,0.00,WUHU216HW,2013-03-24 05:53:00,
2013-03-24 00:58:00,49.9,47.0,29.75,West,270,4.0,6.9,90,0.01,,,0.00,WUHU216HW,2013-03-24 05:58:00,
2013-03-24 01:03:00,49.9,46.7,29.75,NNW,338,2.0,6.9,89,0.01,,,0.00,WUHU216HW,2013-03-24 06:03:00,
2013-03-24 01:08:00,49.7,46.5,29.75,NNW,338,6.0,6.0,89,0.01,,,0.00,WUHU216HW,2013-03-24 06:08:00,
2013-03-24 01:13:00,49.5,46.1,29.75,NW,315,3.1,6.0,88,0.01,,,0.00,WUHU216HW,2013-03-24 06:13:00,
2013-03-24 01:18:00,49.5,46.1,29.76,West,270,1.6,6.3,88,0.00,,,0.00,WUHU216HW,2013-03-24 06:18:00,
2013-03-24 01:23:00,49.3,45.5,29.75,West,270,4.0,6.3,87,0.00,,,0.00,WUHU216HW,2013-03-24 06:23:00,
2013-03-24 01:28:00,49.3,45.9,29.76,NE,45,1.1,4.3,88,0.00,,,0.00,WUHU216HW,2013-03-24 06:28:00,
2013-03-24 01:33:00,49.3,45.9,29.77,West,270,4.0,6.9,88,0.00,,,0.00,WUHU216HW,2013-03-24 06:33:00,
2013-03-24 01:38:00,49.1,45.4,29.77,West,270,3.1,8.5,87,0.00,,,0.00,WUHU216HW,2013-03-24 06:38:00,
2013-03-24 01:43:00,49.0,45.3,29.77,West,270,3.1,8.5,87,0.00,,,0.00,WUHU216HW,2013-03-24 06:43:00,
2013-03-24 01:48:00,49.0,44.9,29.77,North,0,2.9,8.1,86,0.00,,,0.00,WUHU216HW,2013-03-24 06:48:00,
2013-03-24 01:53:00,48.8,45.1,29.77,ESE,113,0.9,4.0,87,0.00,,,0.00,WUHU216HW,2013-03-24 06:53:00,
2013-03-24 01:58:00,48.6,44.9,29.78,WNW,293,4.0,4.0,87,0.00,,,0.00,WUHU216HW,2013-03-24 06:58:00,
2013-03-24 02:03:00,48.6,44.9,29.78,West,270,1.6,4.7,87,0.00,,,0.00,WUHU216HW,2013-03-24 07:03:00,
2013-03-24 02:08:00,48.6,44.9,29.79,NW,315,1.1,4.7,87,0.00,,,0.00,WUHU216HW,2013-03-24 07:08:00,
2013-03-24 02:13:00,48.4,44.7,29.79,WNW,293,4.3,4.3,87,0.00,,,0.00,WUHU216HW,2013-03-24 07:13:00,
2013-03-24 02:18:00,48.4,44.4,29.77,NW,315,2.5,4.3,86,0.00,,,0.00,WUHU216HW,2013-03-24 07:18:00,
2013-03-24 02:23:00,48.2,43.9,29.77,NW,315,4.5,5.1,85,0.00,,,0.00,WUHU216HW,2013-03-24 07:23:00,
2013-03-24 02:28:00,48.1,43.7,29.78,NW,315,2.5,6.0,85,0.00,,,0.00,WUHU216HW,2013-03-24 07:28:00,
2013-03-24 02:33:00,47.9,43.6,29.78,SW,225,0.7,6.0,85,0.00,,,0.00,WUHU216HW,2013-03-24 07:33:00,
2013-03-24 02:38:00,47.9,43.3,29.78,NW,315,5.6,5.6,84,0.00,,,0.00,WUHU216HW,2013-03-24 07:38:00,
2013-03-24 02:43:00,47.5,43.2,29.78,North,0,2.0,5.6,85,0.00,,,0.00,WUHU216HW,2013-03-24 07:43:00,
2013-03-24 02:48:00,47.3,43.0,29.78,NW,315,3.1,5.6,85,0.00,,,0.00,WUHU216HW,2013-03-24 07:48:00,
2013-03-24 02:53:00,47.2,42.9,29.78,NNW,338,2.9,5.8,85,0.00,,,0.00,WUHU216HW,2013-03-24 07:53:00,
2013-03-24 02:59:00,47.2,42.9,29.79,NNW,338,1.1,5.8,85,0.00,,,0.00,WUHU216HW,2013-03-24 07:59:00,
2013-03-24 03:04:00,47.0,42.8,29.78,NW,315,1.8,3.4,85,0.00,,,0.00,WUHU216HW,2013-03-24 08:04:00,
2013-03-24 03:09:00,46.8,42.8,29.78,WNW,293,2.0,4.0,86,0.00,,,0.00,WUHU216HW,2013-03-24 08:09:00,
2013-03-24 03:13:00,46.6,42.7,29.79,WSW,248,1.6,4.0,86,0.00,,,0.00,WUHU216HW,2013-03-24 08:13:00,
2013-03-24 03:19:00,46.6,43.0,29.79,SW,225,3.4,4.3,87,0.00,,,0.00,WUHU216HW,2013-03-24 08:19:00,
2013-03-24 03:24:00,46.6,42.7,29.79,WNW,293,2.9,5.4,86,0.00,,,0.00,WUHU216HW,2013-03-24 08:24:00,
2013-03-24 03:29:00,46.4,42.2,29.79,West,270,3.8,6.3,85,0.00,,,0.00,WUHU216HW,2013-03-24 08:29:00,
2013-03-24 03:34:00,46.3,41.4,29.79,WSW,248,2.5,6.3,83,0.00,,,0.00,WUHU216HW,2013-03-24 08:34:00,
2013-03-24 03:39:00,46.1,41.2,29.79,WNW,293,3.1,7.2,83,0.00,,,0.00,WUHU216HW,2013-03-24 08:39:00,
2013-03-24 03:44:00,45.9,41.0,29.80,WSW,248,3.1,7.2,83,0.00,,,0.00,WUHU216HW,2013-03-24 08:44:00,
2013-03-24 03:48:00,45.9,41.4,29.81,NW,315,2.7,6.3,84,0.00,,,0.00,WUHU216HW,2013-03-24 08:48:00,
2013-03-24 03:53:00,45.7,41.2,29.81,WNW,293,4.3,6.5,84,0.00,,,0.00,WUHU216HW,2013-03-24 08:53:00,
2013-03-24 03:59:00,45.7,41.2,29.81,NNW,338,2.7,6.5,84,0.00,,,0.00,WUHU216HW,2013-03-24 08:59:00,
2013-03-24 04:04:00,45.5,40.7,29.82,NNW,338,7.4,8.3,83,0.00,,,0.00,WUHU216HW,2013-03-24 09:04:00,
2013-03-24 04:09:00,45.2,40.3,29.82,WNW,293,4.3,8.3,83,0.00,,,0.00,WUHU216HW,2013-03-24 09:09:00,
2013-03-24 04:14:00,45.0,40.5,29.82,NW,315,4.7,7.4,84,0.00,,,0.00,WUHU216HW,2013-03-24 09:14:00,
2013-03-24 04:19:00,44.6,39.2,29.82,NNE,23,6.9,9.8,81,0.00,,,0.00,WUHU216HW,2013-03-24 09:19:00,
2013-03-24 04:24:00,44.3,38.8,29.83,NNW,338,6.3,9.8,81,0.00,,,0.00,WUHU216HW,2013-03-24 09:24:00,
2013-03-24 04:29:00,44.1,38.3,29.83,SSW,203,2.9,8.9,80,0.00,,,0.00,WUHU216HW,2013-03-24 09:29:00,
2013-03-24 04:34:00,43.9,37.8,29.84,NNE,23,4.5,7.2,79,0.00,,,0.00,WUHU216HW,2013-03-24 09:34:00,
2013-03-24 04:39:00,43.7,37.6,29.84,NNW,338,3.6,7.2,79,0.00,,,0.00,WUHU216HW,2013-03-24 09:39:00,
2013-03-24 04:44:00,43.6,37.2,29.84,West,270,3.8,7.2,78,0.00,,,0.00,WUHU216HW,2013-03-24 09:44:00,
2013-03-24 04:49:00,43.6,37.4,29.85,WSW,248,4.7,6.0,79,0.00,,,0.00,WUHU216HW,2013-03-24 09:49:00,
2013-03-24 04:54:00,43.6,37.4,29.85,NNW,338,4.0,5.4,79,0.00,,,0.00,WUHU216HW,2013-03-24 09:54:00,
2013-03-24 04:59:00,43.2,36.8,29.85,NW,315,3.8,9.2,78,0.00,,,0.00,WUHU216HW,2013-03-24 09:59:00,
2013-03-24 05:04:00,43.2,36.8,29.84,NW,315,2.9,9.2,78,0.00,,,0.00,WUHU216HW,2013-03-24 10:04:00,
2013-03-24 05:09:00,43.0,36.3,29.85,NNW,338,5.4,5.4,77,0.00,,,0.00,WUHU216HW,2013-03-24 10:09:00,
2013-03-24 05:14:00,42.8,35.8,29.85,NW,315,6.0,6.0,76,0.00,,,0.00,WUHU216HW,2013-03-24 10:14:00,
2013-03-24 05:19:00,42.7,35.9,29.85,NW,315,6.9,6.9,77,0.00,,,0.00,WUHU216HW,2013-03-24 10:19:00,
2013-03-24 05:24:00,42.5,35.1,29.85,NNW,338,3.6,7.4,75,0.00,,,0.00,WUHU216HW,2013-03-24 10:24:00,
2013-03-24 05:29:00,42.5,35.1,29.85,NNW,338,2.5,7.4,75,0.00,,,0.00,WUHU216HW,2013-03-24 10:29:00,
2013-03-24 05:34:00,42.3,35.3,29.86,West,270,1.3,5.8,76,0.00,,,0.00,WUHU216HW,2013-03-24 10:34:00,
2013-03-24 05:39:00,42.3,34.9,29.86,West,270,5.4,5.4,75,0.00,,,0.00,WUHU216HW,2013-03-24 10:39:00,
2013-03-24 05:44:00,42.1,34.4,29.87,WNW,293,9.4,9.4,74,0.00,,,0.00,WUHU216HW,2013-03-24 10:44:00,
2013-03-24 05:49:00,41.9,34.2,29.87,North,0,4.0,9.4,74,0.00,,,0.00,WUHU216HW,2013-03-24 10:49:00,
2013-03-24 05:54:00,41.8,33.8,29.87,WNW,293,6.9,6.9,73,0.00,,,0.00,WUHU216HW,2013-03-24 10:54:00,
2013-03-24 05:59:00,41.8,34.0,29.87,NNW,338,10.7,10.7,74,0.00,,,0.00,WUHU216HW,2013-03-24 10:59:00,
2013-03-24 06:04:00,41.6,33.6,29.87,West,270,3.4,10.7,73,0.00,,,0.00,WUHU216HW,2013-03-24 11:04:00,
2013-03-24 06:09:00,41.6,33.6,29.87,North,0,3.4,9.2,73,0.00,,,0.00,WUHU216HW,2013-03-24 11:09:00,
2013-03-24 06:14:00,41.4,33.4,29.88,WSW,248,6.3,9.2,73,0.00,,,0.00,WUHU216HW,2013-03-24 11:14:00,
2013-03-24 06:19:00,41.4,33.0,29.89,WSW,248,4.0,9.8,72,0.00,,,0.00,WUHU216HW,2013-03-24 11:19:00,
2013-03-24 06:24:00,41.4,33.0,29.89,NW,315,3.1,10.1,72,0.00,,,0.00,WUHU216HW,2013-03-24 11:24:00,
2013-03-24 06:29:00,41.4,33.4,29.90,NW,315,4.0,10.1,73,0.00,,,0.00,WUHU216HW,2013-03-24 11:29:00,
2013-03-24 06:34:00,41.4,33.0,29.89,West,270,5.4,7.8,72,0.00,,,0.00,WUHU216HW,2013-03-24 11:34:00,
2013-03-24 06:39:00,41.0,32.4,29.89,West,270,6.5,7.6,71,0.00,,,0.00,WUHU216HW,2013-03-24 11:39:00,
2013-03-24 06:44:00,41.0,32.0,29.89,South,180,5.4,9.6,70,0.00,,,0.00,WUHU216HW,2013-03-24 11:44:00,
2013-03-24 06:49:00,40.7,31.3,29.90,SW,225,7.2,9.6,69,0.00,,,0.00,WUHU216HW,2013-03-24 11:49:00,
2013-03-24 06:54:00,40.7,30.5,29.90,WSW,248,8.3,8.3,67,0.00,,,0.00,WUHU216HW,2013-03-24 11:54:00,
2013-03-24 06:59:00,40.3,30.2,29.91,NW,315,6.7,8.3,67,0.00,,,0.00,WUHU216HW,2013-03-24 11:59:00,
2013-03-24 07:04:00,40.0,30.3,29.92,NW,315,5.6,6.7,68,0.00,,,0.00,WUHU216HW,2013-03-24 12:04:00,
2013-03-24 07:09:00,39.8,30.8,29.93,North,0,2.5,5.6,70,0.00,,,0.00,WUHU216HW,2013-03-24 12:09:00,
2013-03-24 07:14:00,39.6,30.6,29.93,West,270,2.0,5.4,70,0.00,,,0.00,WUHU216HW,2013-03-24 12:14:00,
2013-03-24 07:19:00,39.4,30.8,29.93,WSW,248,2.5,3.8,71,0.00,,,0.00,WUHU216HW,2013-03-24 12:19:00,
2013-03-24 07:24:00,39.4,30.8,29.92,WNW,293,2.7,4.3,71,0.00,,,0.00,WUHU216HW,2013-03-24 12:24:00,
2013-03-24 07:29:00,39.4,31.2,29.93,WSW,248,2.9,4.3,72,0.00,,,0.00,WUHU216HW,2013-03-24 12:29:00,
2013-03-24 07:34:00,39.8,31.2,29.93,West,270,0.4,2.9,71,0.00,,,0.00,WUHU216HW,2013-03-24 12:34:00,
2013-03-24 07:39:00,40.0,31.3,29.94,West,270,1.1,4.3,71,0.00,,,0.00,WUHU216HW,2013-03-24 12:39:00,
2013-03-24 07:44:00,40.1,31.1,29.93,WSW,248,6.7,6.7,70,0.00,,,0.00,WUHU216HW,2013-03-24 12:44:00,
2013-03-24 07:49:00,40.3,31.3,29.93,WNW,293,0.9,6.7,70,0.00,,,0.00,WUHU216HW,2013-03-24 12:49:00,
2013-03-24 07:54:00,40.5,31.5,29.94,WSW,248,2.0,5.1,70,0.00,,,0.00,WUHU216HW,2013-03-24 12:54:00,
2013-03-24 08:00:00,40.5,31.9,29.94,NNW,338,0.7,5.1,71,0.00,,,0.00,WUHU216HW,2013-03-24 13:00:00,
2013-03-24 08:05:00,40.5,32.1,29.95,West,270,2.5,4.7,72,0.00,,,0.00,WUHU216HW,2013-03-24 13:05:00,
2013-03-24 08:10:00,40.5,31.9,29.95,SW,225,4.7,7.2,71,0.00,,,0.00,WUHU216HW,2013-03-24 13:10:00,
2013-03-24 08:15:00,40.3,31.7,29.95,SSW,203,4.3,7.2,71,0.00,,,0.00,WUHU216HW,2013-03-24 13:15:00,
2013-03-24 08:20:00,40.3,31.7,29.95,SW,225,2.7,7.6,71,0.00,,,0.00,WUHU216HW,2013-03-24 13:20:00,
2013-03-24 08:25:00,40.3,31.7,29.97,NW,315,2.9,7.6,71,0.00,,,0.00,WUHU216HW,2013-03-24 13:25:00,
2013-03-24 08:30:00,40.3,31.0,29.97,SW,225,3.1,6.9,69,0.00,,,0.00,WUHU216HW,2013-03-24 13:30:00,
2013-03-24 08:35:00,40.3,30.2,29.97,NNW,338,2.0,7.2,67,0.00,,,0.00,WUHU216HW,2013-03-24 13:35:00,
2013-03-24 08:40:00,40.3,29.8,29.97,NNW,338,3.1,7.2,66,0.00,,,0.00,WUHU216HW,2013-03-24 13:40:00,
2013-03-24 08:45:00,40.3,29.4,29.97,SE,135,2.5,5.6,65,0.00,,,0.00,WUHU216HW,2013-03-24 13:45:00,
2013-03-24 08:50:00,40.3,29.8,29.98,NNW,338,2.9,6.9,66,0.00,,,0.00,WUHU216HW,2013-03-24 13:50:00,
2013-03-24 08:55:00,40.7,29.8,29.98,WNW,293,8.1,8.1,65,0.00,,,0.00,WUHU216HW,2013-03-24 13:55:00,
2013-03-24 09:00:00,40.7,29.8,29.98,NW,315,2.0,8.1,65,0.00,,,0.00,WUHU216HW,2013-03-24 14:00:00,
2013-03-24 09:05:00,40.9,30.3,29.98,WSW,248,2.2,6.7,66,0.00,,,0.00,WUHU216HW,2013-03-24 14:05:00,
2013-03-24 09:10:00,40.9,30.0,29.98,WSW,248,4.7,6.7,65,0.00,,,0.00,WUHU216HW,2013-03-24 14:10:00,
2013-03-24 09:15:00,40.9,30.0,29.99,NW,315,1.8,4.7,65,0.00,,,0.00,WUHU216HW,2013-03-24 14:15:00,
2013-03-24 09:20:00,41.0,30.5,29.99,NW,315,2.0,5.4,66,0.00,,,0.00,WUHU216HW,2013-03-24 14:20:00,
2013-03-24 09:25:00,41.0,30.5,29.99,West,270,2.5,5.4,66,0.00,,,0.00,WUHU216HW,2013-03-24 14:25:00,
2013-03-24 09:30:00,41.4,30.5,29.99,West,270,2.5,5.4,65,0.00,,,0.00,WUHU216HW,2013-03-24 14:30:00,
2013-03-24 09:35:00,41.4,30.5,29.98,West,270,1.8,7.6,65,0.00,,,0.00,WUHU216HW,2013-03-24 14:35:00,
2013-03-24 09:40:00,41.4,30.9,29.98,WSW,248,3.4,7.6,66,0.00,,,0.00,WUHU216HW,2013-03-24 14:40:00,
2013-03-24 09:45:00,41.6,30.7,29.99,NW,315,5.4,5.4,65,0.00,,,0.00,WUHU216HW,2013-03-24 14:45:00,
2013-03-24 09:50:00,41.6,30.2,29.99,SW,225,2.0,6.9,64,0.00,,,0.00,WUHU216HW,2013-03-24 14:50:00,
2013-03-24 09:55:00,41.2,30.3,29.99,WSW,248,6.7,6.9,65,0.00,,,0.00,WUHU216HW,2013-03-24 14:55:00,
2013-03-24 10:00:00,41.4,30.9,30.00,NW,315,5.1,6.7,66,0.00,,,0.00,WUHU216HW,2013-03-24 15:00:00,
2013-03-24 10:05:00,40.9,29.6,30.00,NW,315,4.0,8.3,64,0.00,,,0.00,WUHU216HW,2013-03-24 15:05:00,
2013-03-24 10:10:00,41.0,29.8,30.00,WNW,293,2.9,8.3,64,0.00,,,0.00,WUHU216HW,2013-03-24 15:10:00,
2013-03-24 10:15:00,41.4,29.7,30.00,NNW,338,9.2,9.2,63,0.00,,,0.00,WUHU216HW,2013-03-24 15:15:00,
2013-03-24 10:21:00,41.6,29.9,30.00,North,0,6.0,9.2,63,0.01,,,0.02,WUHU216HW,2013-03-24 15:21:00,
2013-03-24 10:26:00,42.1,30.4,30.01,West,270,2.9,9.2,63,0.01,,,0.02,WUHU216HW,2013-03-24 15:26:00,
2013-03-24 10:31:00,41.8,29.7,30.00,NW,315,5.8,9.2,62,0.01,,,0.02,WUHU216HW,2013-03-24 15:31:00,
2013-03-24 10:36:00,41.4,29.7,30.01,NW,315,6.9,6.9,63,0.01,,,0.02,WUHU216HW,2013-03-24 15:36:00,
2013-03-24 10:41:00,41.4,29.7,30.01,NNW,338,3.4,6.9,63,0.01,,,0.02,WUHU216HW,2013-03-24 15:41:00,
2013-03-24 10:46:00,41.2,30.0,30.02,SSW,203,2.5,6.3,64,0.01,,,0.02,WUHU216HW,2013-03-24 15:46:00,
2013-03-24 10:51:00,41.9,30.6,30.02,NNE,23,5.6,6.3,64,0.01,,,0.02,WUHU216HW,2013-03-24 15:51:00,
2013-03-24 10:56:00,42.1,30.4,30.02,West,270,6.3,8.3,63,0.01,,,0.02,WUHU216HW,2013-03-24 15:56:00,
2013-03-24 11:01:00,41.8,30.4,30.02,West,270,4.5,8.3,64,0.01,,,0.02,WUHU216HW,2013-03-24 16:01:00,
2013-03-24 11:06:00,41.8,30.9,30.02,NW,315,1.6,8.5,65,0.01,,,0.02,WUHU216HW,2013-03-24 16:06:00,
2013-03-24 11:11:00,42.1,30.4,30.03,West,270,3.1,8.5,63,0.01,,,0.02,WUHU216HW,2013-03-24 16:11:00,
2013-03-24 11:17:00,43.2,30.2,30.02,West,270,5.4,5.6,60,0.00,,,0.02,WUHU216HW,2013-03-24 16:17:00,
2013-03-24 11:22:00,44.3,30.9,30.03,WNW,293,3.4,5.6,59,0.00,,,0.02,WUHU216HW,2013-03-24 16:22:00,
2013-03-24 11:27:00,43.7,29.9,30.03,NNW,338,6.9,10.7,58,0.00,,,0.02,WUHU216HW,2013-03-24 16:27:00,
2013-03-24 11:32:00,44.3,30.9,30.02,NW,315,2.7,10.7,59,0.00,,,0.02,WUHU216HW,2013-03-24 16:32:00,
2013-03-24 11:37:00,45.0,31.2,30.03,NW,315,7.8,7.8,58,0.00,,,0.02,WUHU216HW,2013-03-24 16:37:00,
2013-03-24 11:42:00,45.7,31.3,30.03,WNW,293,2.7,8.3,57,0.00,,,0.02,WUHU216HW,2013-03-24 16:42:00,
2013-03-24 11:47:00,45.5,30.7,30.03,West,270,8.9,8.9,56,0.00,,,0.02,WUHU216HW,2013-03-24 16:47:00,
2013-03-24 11:52:00,45.0,30.7,30.03,North,0,7.4,9.2,57,0.00,,,0.02,WUHU216HW,2013-03-24 16:52:00,
2013-03-24 11:57:00,45.5,31.1,30.03,North,0,3.4,9.2,57,0.00,,,0.02,WUHU216HW,2013-03-24 16:57:00,
2013-03-24 12:02:00,46.3,31.8,30.03,WSW,248,5.8,8.5,57,0.00,,,0.02,WUHU216HW,2013-03-24 17:02:00,
2013-03-24 12:07:00,46.1,29.8,30.03,SW,225,9.8,9.8,53,0.00,,,0.02,WUHU216HW,2013-03-24 17:07:00,
2013-03-24 12:12:00,46.1,30.2,30.03,NNW,338,4.7,9.8,54,0.00,,,0.02,WUHU216HW,2013-03-24 17:12:00,
2013-03-24 12:17:00,46.4,31.1,30.03,NW,315,4.0,8.5,55,0.00,,,0.02,WUHU216HW,2013-03-24 17:17:00,
2013-03-24 12:22:00,47.2,30.8,30.03,SW,225,7.6,10.5,53,0.00,,,0.02,WUHU216HW,2013-03-24 17:22:00,
2013-03-24 12:27:00,47.5,31.6,30.03,WNW,293,6.9,10.5,54,0.00,,,0.02,WUHU216HW,2013-03-24 17:27:00,
2013-03-24 12:32:00,47.9,31.5,30.03,West,270,4.0,8.7,53,0.00,,,0.02,WUHU216HW,2013-03-24 17:32:00,
2013-03-24 12:38:00,47.5,31.1,30.03,NNW,338,2.9,5.8,53,0.00,,,0.02,WUHU216HW,2013-03-24 17:38:00,
2013-03-24 12:43:00,48.1,32.1,30.03,NNW,338,3.6,5.8,54,0.00,,,0.02,WUHU216HW,2013-03-24 17:43:00,
2013-03-24 12:48:00,48.2,30.9,30.03,NNE,23,5.8,5.8,51,0.00,,,0.02,WUHU216HW,2013-03-24 17:48:00,
2013-03-24 12:53:00,48.8,32.9,30.02,WNW,293,2.7,6.0,54,0.00,,,0.02,WUHU216HW,2013-03-24 17:53:00,
2013-03-24 12:58:00,48.6,31.2,30.02,NW,315,3.4,8.3,51,0.00,,,0.02,WUHU216HW,2013-03-24 17:58:00,
2013-03-24 13:03:00,48.8,32.3,30.02,NW,315,4.3,8.3,53,0.00,,,0.02,WUHU216HW,2013-03-24 18:03:00,
2013-03-24 13:08:00,48.8,31.0,30.02,NNW,338,6.5,6.7,50,0.00,,,0.02,WUHU216HW,2013-03-24 18:08:00,
2013-03-24 13:13:00,49.1,31.3,30.02,WNW,293,5.4,8.5,50,0.00,,,0.02,WUHU216HW,2013-03-24 18:13:00,
2013-03-24 13:18:00,49.1,31.3,30.02,North,0,2.9,8.5,50,0.00,,,0.02,WUHU216HW,2013-03-24 18:18:00,
2013-03-24 13:23:00,49.5,31.2,30.02,WNW,293,4.7,9.2,49,0.00,,,0.02,WUHU216HW,2013-03-24 18:23:00,
2013-03-24 13:28:00,49.7,31.3,30.01,WNW,293,6.3,9.2,49,0.00,,,0.02,WUHU216HW,2013-03-24 18:28:00,
2013-03-24 13:33:00,49.3,31.0,30.01,NW,315,4.5,7.6,49,0.00,,,0.02,WUHU216HW,2013-03-24 18:33:00,
2013-03-24 13:39:00,49.7,31.3,30.01,SSW,203,3.4,9.8,49,0.00,,,0.02,WUHU216HW,2013-03-24 18:39:00,
2013-03-24 13:44:00,50.4,31.4,30.00,WNW,293,5.6,9.8,48,0.00,,,0.02,WUHU216HW,2013-03-24 18:44:00,
2013-03-24 13:49:00,50.6,31.1,30.00,NW,315,3.8,8.5,47,0.00,,,0.02,WUHU216HW,2013-03-24 18:49:00,
2013-03-24 13:54:00,50.4,30.9,30.00,NW,315,14.5,14.5,47,0.00,,,0.02,WUHU216HW,2013-03-24 18:54:00,
2013-03-24 13:59:00,50.8,31.8,30.00,West,270,5.6,14.5,48,0.00,,,0.02,WUHU216HW,2013-03-24 18:59:00,
2013-03-24 14:04:00,50.2,31.2,30.00,SW,225,4.7,7.8,48,0.00,,,0.02,WUHU216HW,2013-03-24 19:04:00,
2013-03-24 14:11:00,50.6,31.1,30.00,WSW,248,5.6,8.3,47,0.00,,,0.02,WUHU216HW,2013-03-24 19:11:00,
2013-03-24 14:17:00,51.1,32.0,30.00,West,270,3.8,10.3,48,0.00,,,0.02,WUHU216HW,2013-03-24 19:17:00,
2013-03-24 14:22:00,50.6,29.9,30.00,West,270,4.3,7.6,45,0.00,,,0.02,WUHU216HW,2013-03-24 19:22:00,
2013-03-24 14:27:00,50.9,32.0,30.00,NW,315,7.8,7.8,48,0.00,,,0.02,WUHU216HW,2013-03-24 19:27:00,
2013-03-24 14:32:00,50.9,30.8,30.00,NW,315,3.6,7.8,46,0.00,,,0.02,WUHU216HW,2013-03-24 19:32:00,
2013-03-24 14:37:00,51.1,30.4,30.00,West,270,6.3,7.8,45,0.00,,,0.02,WUHU216HW,2013-03-24 19:37:00,
2013-03-24 14:42:00,52.2,30.8,30.00,NNW,338,4.7,6.3,44,0.00,,,0.02,WUHU216HW,2013-03-24 19:42:00,
2013-03-24 14:47:00,51.5,30.7,30.00,NW,315,4.0,8.9,45,0.00,,,0.02,WUHU216HW,2013-03-24 19:47:00,
2013-03-24 14:53:00,51.3,28.9,30.00,WNW,293,4.3,8.9,42,0.00,,,0.02,WUHU216HW,2013-03-24 19:53:00,
2013-03-24 14:58:00,52.4,30.4,30.00,NNW,338,10.3,10.3,43,0.00,,,0.02,WUHU216HW,2013-03-24 19:58:00,
2013-03-24 15:03:00,52.7,31.3,30.00,NW,315,3.8,10.3,44,0.00,,,0.02,WUHU216HW,2013-03-24 20:03:00,
2013-03-24 15:08:00,53.6,31.6,30.00,SW,225,2.7,10.3,43,0.00,,,0.02,WUHU216HW,2013-03-24 20:08:00,
2013-03-24 15:13:00,52.0,30.7,30.00,NW,315,7.4,7.4,44,0.00,,,0.02,WUHU216HW,2013-03-24 20:13:00,
2013-03-24 15:18:00,52.6,31.7,30.00,NNW,338,4.0,8.7,45,0.00,,,0.02,WUHU216HW,2013-03-24 20:18:00,
2013-03-24 15:23:00,52.6,31.1,30.00,NW,315,5.8,8.7,44,0.00,,,0.02,WUHU216HW,2013-03-24 20:23:00,
2013-03-24 15:29:00,51.5,30.2,30.00,NW,315,4.7,8.5,44,0.00,,,0.02,WUHU216HW,2013-03-24 20:29:00,
2013-03-24 15:34:00,52.0,30.7,30.00,NW,315,6.0,6.9,44,0.00,,,0.02,WUHU216HW,2013-03-24 20:34:00,
2013-03-24 15:39:00,52.2,30.2,30.00,North,0,4.3,9.2,43,0.00,,,0.02,WUHU216HW,2013-03-24 20:39:00,
2013-03-24 15:44:00,52.4,30.4,30.00,NNW,338,7.4,9.2,43,0.00,,,0.02,WUHU216HW,2013-03-24 20:44:00,
2013-03-24 15:50:00,53.1,31.6,30.00,SW,225,4.7,8.3,44,0.00,,,0.02,WUHU216HW,2013-03-24 20:50:00,
2013-03-24 15:55:00,54.9,32.7,30.00,NW,315,8.1,8.1,43,0.00,,,0.02,WUHU216HW,2013-03-24 20:55:00,
2013-03-24 16:00:00,55.1,32.3,30.00,NNW,338,6.9,8.1,42,0.00,,,0.02,WUHU216HW,2013-03-24 21:00:00,
2013-03-24 16:05:00,55.1,31.8,30.00,NW,315,6.7,6.9,41,0.00,,,0.02,WUHU216HW,2013-03-24 21:05:00,
2013-03-24 16:10:00,54.5,30.7,30.00,NW,315,3.4,6.7,40,0.00,,,0.02,WUHU216HW,2013-03-24 21:10:00,
2013-03-24 16:15:00,55.1,31.8,30.00,West,270,2.0,5.1,41,0.00,,,0.02,WUHU216HW,2013-03-24 21:15:00,
2013-03-24 16:20:00,54.9,31.1,30.00,WSW,248,4.0,9.2,40,0.00,,,0.02,WUHU216HW,2013-03-24 21:20:00,
2013-03-24 16:25:00,54.9,30.3,30.00,NW,315,4.5,9.2,39,0.00,,,0.02,WUHU216HW,2013-03-24 21:25:00,
2013-03-24 16:31:00,54.0,30.3,30.00,North,0,4.9,5.8,40,0.00,,,0.02,WUHU216HW,2013-03-24 21:31:00,
2013-03-24 16:36:00,53.8,30.6,30.00,NW,315,6.9,6.9,41,0.00,,,0.02,WUHU216HW,2013-03-24 21:36:00,
2013-03-24 16:41:00,53.8,30.6,30.00,West,270,6.3,6.9,41,0.00,,,0.02,WUHU216HW,2013-03-24 21:41:00,
2013-03-24 16:46:00,54.9,31.6,29.99,NW,315,5.4,6.3,41,0.00,,,0.02,WUHU216HW,2013-03-24 21:46:00,
2013-03-24 16:51:00,55.8,32.9,30.00,NW,315,1.3,6.5,42,0.00,,,0.02,WUHU216HW,2013-03-24 21:51:00,
2013-03-24 16:56:00,55.8,30.4,30.00,SSW,203,3.1,6.5,38,0.00,,,0.02,WUHU216HW,2013-03-24 21:56:00,
2013-03-24 17:01:00,55.3,30.6,30.00,NW,315,4.5,8.9,39,0.00,,,0.02,WUHU216HW,2013-03-24 22:01:00,
2013-03-24 17:06:00,55.1,30.5,29.99,NNW,338,5.4,10.7,39,0.00,,,0.02,WUHU216HW,2013-03-24 22:06:00,
2013-03-24 17:11:00,55.8,30.4,29.99,NW,315,4.5,11.9,38,0.00,,,0.02,WUHU216HW,2013-03-24 22:11:00,
2013-03-24 17:16:00,55.3,30.0,29.99,NW,315,4.5,11.9,38,0.00,,,0.02,WUHU216HW,2013-03-24 22:16:00,
2013-03-24 17:21:00,56.2,31.4,29.99,NW,315,4.0,7.6,39,0.00,,,0.02,WUHU216HW,2013-03-24 22:21:00,
2013-03-24 17:26:00,56.7,30.5,29.99,NW,315,7.6,7.6,37,0.00,,,0.02,WUHU216HW,2013-03-24 22:26:00,
2013-03-24 17:31:00,55.4,30.1,29.98,NW,315,1.8,7.6,38,0.00,,,0.02,WUHU216HW,2013-03-24 22:31:00,
2013-03-24 17:36:00,56.2,30.8,29.99,WNW,293,2.5,5.1,38,0.00,,,0.02,WUHU216HW,2013-03-24 22:36:00,
2013-03-24 17:42:00,56.7,32.0,29.99,NW,315,6.3,6.3,39,0.00,,,0.02,WUHU216HW,2013-03-24 22:42:00,
2013-03-24 17:47:00,57.2,30.3,29.99,NW,315,5.1,6.3,36,0.00,,,0.02,WUHU216HW,2013-03-24 22:47:00,
2013-03-24 17:52:00,56.2,30.1,29.98,NNE,23,3.6,5.4,37,0.00,,,0.02,WUHU216HW,2013-03-24 22:52:00,
2013-03-24 17:57:00,55.3,29.3,29.99,North,0,3.4,7.4,37,0.00,,,0.02,WUHU216HW,2013-03-24 22:57:00,
2013-03-24 18:02:00,55.6,30.2,29.99,WSW,248,2.0,9.8,38,0.00,,,0.02,WUHU216HW,2013-03-24 23:02:00,
2013-03-24 18:07:00,55.8,29.7,29.99,NNW,338,2.7,9.8,37,0.00,,,0.02,WUHU216HW,2013-03-24 23:07:00,
2013-03-24 18:12:00,55.1,29.1,29.99,NNW,338,4.7,4.7,37,0.00,,,0.02,WUHU216HW,2013-03-24 23:12:00,
2013-03-24 18:17:00,55.1,29.1,29.99,NNW,338,4.7,4.7,37,0.00,,,0.02,WUHU216HW,2013-03-24 23:17:00,
2013-03-24 18:22:00,55.1,30.5,29.99,NNW,338,6.3,9.6,39,0.00,,,0.02,WUHU216HW,2013-03-24 23:22:00,
2013-03-24 18:27:00,55.8,29.7,30.00,NNW,338,4.5,9.6,37,0.00,,,0.02,WUHU216HW,2013-03-24 23:27:00,
2013-03-24 18:32:00,56.0,29.9,30.00,NW,315,2.2,4.7,37,0.00,,,0.02,WUHU216HW,2013-03-24 23:32:00,
2013-03-24 18:37:00,55.6,28.9,30.00,NNW,338,7.2,10.1,36,0.00,,,0.02,WUHU216HW,2013-03-24 23:37:00,
2013-03-24 18:42:00,55.3,28.5,30.00,NNW,338,9.6,10.1,36,0.00,,,0.02,WUHU216HW,2013-03-24 23:42:00,
2013-03-24 18:47:00,54.9,28.3,30.00,NW,315,6.0,9.6,36,0.00,,,0.02,WUHU216HW,2013-03-24 23:47:00,
2013-03-24 18:52:00,54.4,28.4,30.00,North,0,4.7,9.2,37,0.00,,,0.02,WUHU216HW,2013-03-24 23:52:00,
2013-03-24 18:58:00,54.0,28.8,30.00,NNW,338,3.4,8.9,38,0.00,,,0.02,WUHU216HW,2013-03-24 23:58:00,
2013-03-24 19:02:00,54.0,28.8,30.00,NNW,338,4.9,8.9,38,0.00,,,0.02,WUHU216HW,2013-03-25 00:02:00,
2013-03-24 19:08:00,53.1,28.7,30.00,NNW,338,3.8,5.8,39,0.00,,,0.02,WUHU216HW,2013-03-25 00:08:00,
2013-03-24 19:13:00,52.9,29.3,30.00,NNW,338,1.8,5.8,40,0.00,,,0.02,WUHU216HW,2013-03-25 00:13:00,
2013-03-24 19:18:00,51.8,28.3,30.01,NNW,338,3.8,5.8,40,0.00,,,0.02,WUHU216HW,2013-03-25 00:18:00,
2013-03-24 19:23:00,51.1,28.7,30.01,NW,315,3.4,5.8,42,0.00,,,0.02,WUHU216HW,2013-03-25 00:23:00,
2013-03-24 19:28:00,50.0,27.7,30.00,North,0,4.7,6.7,42,0.00,,,0.02,WUHU216HW,2013-03-25 00:28:00,
2013-03-24 19:33:00,49.5,27.3,30.00,NNW,338,2.5,6.7,42,0.00,,,0.02,WUHU216HW,2013-03-25 00:33:00,
2013-03-24 19:38:00,48.8,27.2,30.00,NNW,338,4.3,5.1,43,0.00,,,0.02,WUHU216HW,2013-03-25 00:38:00,
2013-03-24 19:43:00,48.2,27.2,30.01,NNW,338,3.1,4.3,44,0.00,,,0.02,WUHU216HW,2013-03-25 00:43:00,
2013-03-24 19:48:00,47.7,27.8,30.00,NW,315,4.5,4.5,46,0.00,,,0.02,WUHU216HW,2013-03-25 00:48:00,
2013-03-24 19:53:00,47.3,28.0,30.00,NNW,338,1.6,4.5,47,0.00,,,0.02,WUHU216HW,2013-03-25 00:53:00,
2013-03-24 19:58:00,47.0,28.2,30.01,NW,315,1.8,3.4,48,0.00,,,0.02,WUHU216HW,2013-03-25 00:58:00,
2013-03-24 20:05:00,46.6,27.9,30.01,SE,135,0.2,2.2,48,0.00,,,0.02,WUHU216HW,2013-03-25 01:05:00,
2013-03-24 20:11:00,46.4,27.7,30.01,NW,315,0.4,3.4,48,0.00,,,0.02,WUHU216HW,2013-03-25 01:11:00,
2013-03-24 20:16:00,46.1,27.4,30.01,NNW,338,1.3,3.4,48,0.00,,,0.02,WUHU216HW,2013-03-25 01:16:00,
2013-03-24 20:22:00,45.9,27.8,30.02,NNW,338,2.0,2.7,49,0.00,,,0.02,WUHU216HW,2013-03-25 01:22:00,
2013-03-24 20:27:00,45.7,27.6,30.02,NW,315,1.3,2.7,49,0.00,,,0.02,WUHU216HW,2013-03-25 01:27:00,
2013-03-24 20:32:00,45.4,27.8,30.02,NW,315,2.9,2.9,50,0.00,,,0.02,WUHU216HW,2013-03-25 01:32:00,
2013-03-24 20:38:00,45.2,27.6,30.02,WNW,293,1.1,2.9,50,0.00,,,0.02,WUHU216HW,2013-03-25 01:38:00,
2013-03-24 20:43:00,45.2,27.6,30.03,NW,315,0.4,2.7,50,0.00,,,0.02,WUHU216HW,2013-03-25 01:43:00,
2013-03-24 20:49:00,45.0,27.6,30.03,NW,315,1.1,1.8,50,0.00,,,0.02,WUHU216HW,2013-03-25 01:49:00,
2013-03-24 20:54:00,44.6,27.6,30.03,NW,315,2.5,3.6,51,0.00,,,0.02,WUHU216HW,2013-03-25 01:54:00,
2013-03-24 20:59:00,44.5,27.9,30.03,NNW,338,2.5,3.6,52,0.00,,,0.02,WUHU216HW,2013-03-25 01:59:00,
2013-03-24 21:04:00,44.3,27.3,30.03,NNW,338,1.3,2.9,51,0.00,,,0.02,WUHU216HW,2013-03-25 02:04:00,
2013-03-24 21:09:00,44.3,27.3,30.04,North,0,2.5,4.0,51,0.00,,,0.02,WUHU216HW,2013-03-25 02:09:00,
2013-03-24 21:14:00,44.3,27.3,30.04,NW,315,0.9,4.0,51,0.00,,,0.02,WUHU216HW,2013-03-25 02:14:00,
2013-03-24 21:19:00,44.3,27.3,30.04,SW,225,1.1,4.9,51,0.00,,,0.02,WUHU216HW,2013-03-25 02:19:00,
2013-03-24 21:25:00,44.1,27.2,30.05,WNW,293,1.3,3.1,51,0.00,,,0.02,WUHU216HW,2013-03-25 02:25:00,
2013-03-24 21:30:00,43.9,27.0,30.05,WNW,293,2.9,2.9,51,0.00,,,0.02,WUHU216HW,2013-03-25 02:30:00,
2013-03-24 21:35:00,43.9,26.0,30.05,NNW,338,1.8,2.9,49,0.00,,,0.02,WUHU216HW,2013-03-25 02:35:00,
2013-03-24 21:40:00,43.9,26.0,30.05,NW,315,3.6,4.0,49,0.00,,,0.02,WUHU216HW,2013-03-25 02:40:00,
2013-03-24 21:45:00,43.9,26.0,30.05,WNW,293,1.6,4.3,49,0.00,,,0.02,WUHU216HW,2013-03-25 02:45:00,
2013-03-24 21:50:00,43.6,25.7,30.06,NNW,338,2.0,4.3,49,0.00,,,0.02,WUHU216HW,2013-03-25 02:50:00,
2013-03-24 21:56:00,43.6,25.7,30.06,NNW,338,2.2,3.6,49,0.00,,,0.02,WUHU216HW,2013-03-25 02:56:00,
2013-03-24 22:01:00,43.2,25.4,30.06,NW,315,1.8,3.6,49,0.00,,,0.02,WUHU216HW,2013-03-25 03:01:00,
2013-03-24 22:06:00,42.8,25.6,30.07,NW,315,1.1,2.5,50,0.00,,,0.02,WUHU216HW,2013-03-25 03:06:00,
2013-03-24 22:11:00,42.7,25.4,30.06,NNW,338,1.3,2.5,50,0.00,,,0.02,WUHU216HW,2013-03-25 03:11:00,
2013-03-24 22:16:00,42.5,25.2,30.06,NW,315,1.6,2.5,50,0.00,,,0.02,WUHU216HW,2013-03-25 03:16:00,
2013-03-24 22:21:00,42.3,24.5,30.07,NNW,338,1.1,3.4,49,0.00,,,0.02,WUHU216HW,2013-03-25 03:21:00,
2013-03-24 22:26:00,42.3,25.0,30.06,NNW,338,1.8,3.6,50,0.00,,,0.02,WUHU216HW,2013-03-25 03:26:00,
2013-03-24 22:32:00,42.1,24.8,30.07,NNW,338,0.9,3.6,50,0.00,,,0.02,WUHU216HW,2013-03-25 03:32:00,
2013-03-24 22:37:00,42.1,25.3,30.07,NW,315,0.7,2.7,51,0.00,,,0.02,WUHU216HW,2013-03-25 03:37:00,
2013-03-24 22:42:00,41.8,24.5,30.07,WNW,293,2.5,2.5,50,0.00,,,0.02,WUHU216HW,2013-03-25 03:42:00,
2013-03-24 22:47:00,41.8,24.5,30.07,NW,315,1.3,2.5,50,0.00,,,0.02,WUHU216HW,2013-03-25 03:47:00,
2013-03-24 22:53:00,41.8,24.5,30.08,WNW,293,0.9,2.2,50,0.00,,,0.02,WUHU216HW,2013-03-25 03:53:00,
2013-03-24 22:59:00,41.6,24.8,30.08,NW,315,1.1,4.9,51,0.00,,,0.02,WUHU216HW,2013-03-25 03:59:00,
2013-03-24 23:00:00,41.6,24.8,30.08,NNW,338,1.6,4.9,51,0.00,,,0.02,WUHU216HW,2013-03-25 04:00:00,
2013-03-24 23:02:00,41.4,24.6,30.08,NNW,338,2.5,4.9,51,0.00,,,0.02,WUHU216HW,2013-03-25 04:02:00,
2013-03-24 23:07:00,41.4,24.6,30.08,North,0,0.2,3.8,51,0.00,,,0.02,WUHU216HW,2013-03-25 04:07:00,
2013-03-24 23:13:00,41.0,24.7,30.08,West,270,2.9,3.8,52,0.00,,,0.02,WUHU216HW,2013-03-25 04:13:00,
2013-03-24 23:18:00,41.0,24.7,30.08,NNW,338,0.4,4.5,52,0.00,,,0.02,WUHU216HW,2013-03-25 04:18:00,
2013-03-24 23:23:00,40.9,24.5,30.09,NW,315,1.1,4.5,52,0.00,,,0.02,WUHU216HW,2013-03-25 04:23:00,
2013-03-24 23:28:00,40.7,24.8,30.09,NNW,338,0.9,2.5,53,0.00,,,0.02,WUHU216HW,2013-03-25 04:28:00,
2013-03-24 23:33:00,40.5,24.6,30.09,West,270,0.7,2.2,53,0.00,,,0.02,WUHU216HW,2013-03-25 04:33:00,
2013-03-24 23:38:00,40.3,24.5,30.10,North,0,0.7,2.9,53,0.00,,,0.02,WUHU216HW,2013-03-25 04:38:00,
2013-03-24 23:43:00,40.1,24.8,30.09,NNW,338,2.0,2.9,54,0.00,,,0.02,WUHU216HW,2013-03-25 04:43:00,
2013-03-24 23:48:00,40.0,24.6,30.10,NW,315,0.7,3.1,54,0.00,,,0.02,WUHU216HW,2013-03-25 04:48:00,
2013-03-24 23:54:00,39.8,24.4,30.10,NNE,23,0.0,3.1,54,0.00,,,0.02,WUHU216HW,2013-03-25 04:54:00,
2013-03-24 23:59:00,39.4,24.5,30.10,SSW,203,0.2,2.0,55,0.00,,,0.02,WUHU216HW,2013-03-25 04:59:00,